sensor_id;sensor_type;location;lat;lon;timestamp;P1;durP1;ratioP1;P2;durP2;ratioP2
32705;SDS011;19094;50.972;3.538;2023-04-03T00:01:55;25.45;;;17.83;;
32705;SDS011;19094;50.972;3.538;2023-04-03T00:04:21;29.73;;;18.63;;
32705;SDS011;19094;50.972;3.538;2023-04-03T00:06:46;32.90;;;18.35;;
32705;SDS011;19094;50.972;3.538;2023-04-03T00:09:12;28.75;;;17.98;;
32705;SDS011;19094;50.972;3.538;2023-04-03T00:11:38;27.02;;;18.02;;
32705;SDS011;19094;50.972;3.538;2023-04-03T00:14:03;32.55;;;18.25;;
32705;SDS011;19094;50.972;3.538;2023-04-03T00:16:29;30.38;;;18.90;;
32705;SDS011;19094;50.972;3.538;2023-04-03T00:18:55;27.95;;;17.15;;
32705;SDS011;19094;50.972;3.538;2023-04-03T00:21:20;31.23;;;17.73;;
32705;SDS011;19094;50.972;3.538;2023-04-03T00:23:46;28.25;;;16.92;;
32705;SDS011;19094;50.972;3.538;2023-04-03T00:26:12;27.80;;;17.80;;
32705;SDS011;19094;50.972;3.538;2023-04-03T00:28:37;28.25;;;17.02;;
32705;SDS011;19094;50.972;3.538;2023-04-03T00:31:03;30.27;;;17.55;;
32705;SDS011;19094;50.972;3.538;2023-04-03T00:33:29;29.77;;;17.08;;
32705;SDS011;19094;50.972;3.538;2023-04-03T00:35:54;31.98;;;16.63;;
32705;SDS011;19094;50.972;3.538;2023-04-03T00:38:20;29.98;;;16.67;;
32705;SDS011;19094;50.972;3.538;2023-04-03T00:40:47;33.28;;;17.40;;
32705;SDS011;19094;50.972;3.538;2023-04-03T00:43:17;30.05;;;16.27;;
32705;SDS011;19094;50.972;3.538;2023-04-03T00:45:52;29.48;;;16.30;;
32705;SDS011;19094;50.972;3.538;2023-04-03T00:50:50;27.88;;;16.20;;
32705;SDS011;19094;50.972;3.538;2023-04-03T00:53:18;27.95;;;16.00;;
32705;SDS011;19094;50.972;3.538;2023-04-03T00:55:51;23.67;;;14.27;;
32705;SDS011;19094;50.972;3.538;2023-04-03T00:58:19;27.60;;;15.77;;
32705;SDS011;19094;50.972;3.538;2023-04-03T01:00:50;27.00;;;15.20;;
32705;SDS011;19094;50.972;3.538;2023-04-03T01:03:22;28.52;;;15.07;;
32705;SDS011;19094;50.972;3.538;2023-04-03T01:05:49;23.80;;;15.30;;
32705;SDS011;19094;50.972;3.538;2023-04-03T01:08:15;23.35;;;14.43;;
32705;SDS011;19094;50.972;3.538;2023-04-03T01:10:41;24.73;;;14.13;;
32705;SDS011;19094;50.972;3.538;2023-04-03T01:13:17;26.05;;;13.63;;
32705;SDS011;19094;50.972;3.538;2023-04-03T01:15:45;23.05;;;13.30;;
32705;SDS011;19094;50.972;3.538;2023-04-03T01:18:11;23.02;;;14.10;;
32705;SDS011;19094;50.972;3.538;2023-04-03T01:20:43;30.10;;;13.35;;
32705;SDS011;19094;50.972;3.538;2023-04-03T01:23:30;22.83;;;13.57;;
32705;SDS011;19094;50.972;3.538;2023-04-03T01:26:04;21.92;;;13.05;;
32705;SDS011;19094;50.972;3.538;2023-04-03T01:28:31;24.42;;;13.85;;
32705;SDS011;19094;50.972;3.538;2023-04-03T01:33:30;23.70;;;12.80;;
32705;SDS011;19094;50.972;3.538;2023-04-03T01:35:56;27.55;;;12.75;;
32705;SDS011;19094;50.972;3.538;2023-04-03T01:38:22;21.75;;;12.88;;
32705;SDS011;19094;50.972;3.538;2023-04-03T01:40:48;22.77;;;12.13;;
32705;SDS011;19094;50.972;3.538;2023-04-03T01:43:13;23.27;;;12.77;;
32705;SDS011;19094;50.972;3.538;2023-04-03T01:45:39;19.90;;;12.15;;
32705;SDS011;19094;50.972;3.538;2023-04-03T01:48:04;21.45;;;11.45;;
32705;SDS011;19094;50.972;3.538;2023-04-03T01:50:30;18.45;;;10.95;;
32705;SDS011;19094;50.972;3.538;2023-04-03T01:52:56;19.30;;;10.90;;
32705;SDS011;19094;50.972;3.538;2023-04-03T01:55:22;20.10;;;10.05;;
32705;SDS011;19094;50.972;3.538;2023-04-03T01:57:47;18.90;;;10.23;;
32705;SDS011;19094;50.972;3.538;2023-04-03T02:00:13;19.42;;;11.45;;
32705;SDS011;19094;50.972;3.538;2023-04-03T02:02:39;20.25;;;10.68;;
32705;SDS011;19094;50.972;3.538;2023-04-03T02:05:05;18.92;;;10.75;;
32705;SDS011;19094;50.972;3.538;2023-04-03T02:07:31;18.40;;;10.68;;
32705;SDS011;19094;50.972;3.538;2023-04-03T02:09:57;16.20;;;9.43;;
32705;SDS011;19094;50.972;3.538;2023-04-03T02:12:22;19.42;;;11.13;;
32705;SDS011;19094;50.972;3.538;2023-04-03T02:14:48;15.55;;;9.68;;
32705;SDS011;19094;50.972;3.538;2023-04-03T02:17:14;16.27;;;9.20;;
32705;SDS011;19094;50.972;3.538;2023-04-03T02:19:40;15.88;;;9.95;;
32705;SDS011;19094;50.972;3.538;2023-04-03T02:22:05;18.42;;;9.00;;
32705;SDS011;19094;50.972;3.538;2023-04-03T02:24:31;15.38;;;9.15;;
32705;SDS011;19094;50.972;3.538;2023-04-03T02:26:57;17.20;;;8.55;;
32705;SDS011;19094;50.972;3.538;2023-04-03T02:29:23;17.15;;;8.57;;
32705;SDS011;19094;50.972;3.538;2023-04-03T02:31:49;15.50;;;7.95;;
32705;SDS011;19094;50.972;3.538;2023-04-03T02:34:15;13.65;;;8.13;;
32705;SDS011;19094;50.972;3.538;2023-04-03T02:36:41;18.58;;;9.00;;
32705;SDS011;19094;50.972;3.538;2023-04-03T02:39:07;20.23;;;8.43;;
32705;SDS011;19094;50.972;3.538;2023-04-03T02:41:32;13.50;;;8.65;;
32705;SDS011;19094;50.972;3.538;2023-04-03T02:44:01;19.80;;;9.93;;
32705;SDS011;19094;50.972;3.538;2023-04-03T02:46:28;13.05;;;7.88;;
32705;SDS011;19094;50.972;3.538;2023-04-03T02:48:53;15.68;;;8.90;;
32705;SDS011;19094;50.972;3.538;2023-04-03T02:51:19;14.63;;;8.50;;
32705;SDS011;19094;50.972;3.538;2023-04-03T02:53:45;12.63;;;7.85;;
32705;SDS011;19094;50.972;3.538;2023-04-03T02:56:10;17.48;;;8.70;;
32705;SDS011;19094;50.972;3.538;2023-04-03T02:58:36;15.95;;;8.35;;
32705;SDS011;19094;50.972;3.538;2023-04-03T03:01:02;14.85;;;8.15;;
32705;SDS011;19094;50.972;3.538;2023-04-03T03:03:28;14.85;;;8.43;;
32705;SDS011;19094;50.972;3.538;2023-04-03T03:06:04;20.13;;;8.55;;
32705;SDS011;19094;50.972;3.538;2023-04-03T03:08:30;15.70;;;8.73;;
32705;SDS011;19094;50.972;3.538;2023-04-03T03:10:56;14.48;;;8.52;;
32705;SDS011;19094;50.972;3.538;2023-04-03T03:13:22;16.00;;;7.80;;
32705;SDS011;19094;50.972;3.538;2023-04-03T03:15:48;14.85;;;7.82;;
32705;SDS011;19094;50.972;3.538;2023-04-03T03:18:14;19.42;;;8.48;;
32705;SDS011;19094;50.972;3.538;2023-04-03T03:20:40;14.07;;;8.50;;
32705;SDS011;19094;50.972;3.538;2023-04-03T03:23:06;18.10;;;8.95;;
32705;SDS011;19094;50.972;3.538;2023-04-03T03:25:31;14.52;;;8.15;;
32705;SDS011;19094;50.972;3.538;2023-04-03T03:27:57;12.27;;;8.00;;
32705;SDS011;19094;50.972;3.538;2023-04-03T03:30:23;15.02;;;7.65;;
32705;SDS011;19094;50.972;3.538;2023-04-03T03:32:48;15.23;;;8.30;;
32705;SDS011;19094;50.972;3.538;2023-04-03T03:35:14;13.95;;;7.50;;
32705;SDS011;19094;50.972;3.538;2023-04-03T03:37:39;15.38;;;7.80;;
32705;SDS011;19094;50.972;3.538;2023-04-03T03:40:05;13.27;;;7.82;;
32705;SDS011;19094;50.972;3.538;2023-04-03T03:42:31;15.48;;;8.25;;
32705;SDS011;19094;50.972;3.538;2023-04-03T03:44:57;11.93;;;7.10;;
32705;SDS011;19094;50.972;3.538;2023-04-03T03:47:23;16.40;;;8.13;;
32705;SDS011;19094;50.972;3.538;2023-04-03T03:49:48;12.25;;;7.10;;
32705;SDS011;19094;50.972;3.538;2023-04-03T03:52:14;20.70;;;8.60;;
32705;SDS011;19094;50.972;3.538;2023-04-03T03:54:40;13.57;;;7.13;;
32705;SDS011;19094;50.972;3.538;2023-04-03T03:57:06;12.38;;;7.30;;
32705;SDS011;19094;50.972;3.538;2023-04-03T03:59:31;14.35;;;7.55;;
32705;SDS011;19094;50.972;3.538;2023-04-03T04:01:57;12.52;;;7.00;;
32705;SDS011;19094;50.972;3.538;2023-04-03T04:04:22;16.15;;;7.50;;
32705;SDS011;19094;50.972;3.538;2023-04-03T04:06:48;18.38;;;7.85;;
32705;SDS011;19094;50.972;3.538;2023-04-03T04:09:14;24.45;;;7.97;;
32705;SDS011;19094;50.972;3.538;2023-04-03T04:11:39;16.23;;;8.32;;
32705;SDS011;19094;50.972;3.538;2023-04-03T04:14:06;16.55;;;7.90;;
32705;SDS011;19094;50.972;3.538;2023-04-03T04:16:32;12.98;;;7.85;;
32705;SDS011;19094;50.972;3.538;2023-04-03T04:18:57;12.95;;;7.72;;
32705;SDS011;19094;50.972;3.538;2023-04-03T04:21:23;18.33;;;8.55;;
32705;SDS011;19094;50.972;3.538;2023-04-03T04:23:49;16.17;;;8.68;;
32705;SDS011;19094;50.972;3.538;2023-04-03T04:26:14;16.50;;;8.02;;
32705;SDS011;19094;50.972;3.538;2023-04-03T04:28:40;23.77;;;10.20;;
32705;SDS011;19094;50.972;3.538;2023-04-03T04:31:06;15.77;;;8.32;;
32705;SDS011;19094;50.972;3.538;2023-04-03T04:33:31;22.90;;;9.48;;
32705;SDS011;19094;50.972;3.538;2023-04-03T04:35:57;17.17;;;9.50;;
32705;SDS011;19094;50.972;3.538;2023-04-03T04:38:23;22.65;;;11.88;;
32705;SDS011;19094;50.972;3.538;2023-04-03T04:40:48;17.40;;;10.55;;
32705;SDS011;19094;50.972;3.538;2023-04-03T04:43:14;20.70;;;11.88;;
32705;SDS011;19094;50.972;3.538;2023-04-03T04:45:40;20.85;;;10.75;;
32705;SDS011;19094;50.972;3.538;2023-04-03T04:48:06;21.73;;;10.98;;
32705;SDS011;19094;50.972;3.538;2023-04-03T04:50:32;18.20;;;9.63;;
32705;SDS011;19094;50.972;3.538;2023-04-03T04:52:58;19.75;;;8.75;;
32705;SDS011;19094;50.972;3.538;2023-04-03T04:55:24;15.25;;;9.77;;
32705;SDS011;19094;50.972;3.538;2023-04-03T04:57:49;23.08;;;11.63;;
32705;SDS011;19094;50.972;3.538;2023-04-03T05:00:15;15.18;;;9.70;;
32705;SDS011;19094;50.972;3.538;2023-04-03T05:02:41;24.10;;;11.05;;
32705;SDS011;19094;50.972;3.538;2023-04-03T05:05:07;19.48;;;11.00;;
32705;SDS011;19094;50.972;3.538;2023-04-03T05:07:33;26.52;;;12.40;;
32705;SDS011;19094;50.972;3.538;2023-04-03T05:10:00;28.85;;;13.95;;
32705;SDS011;19094;50.972;3.538;2023-04-03T05:12:27;28.20;;;13.02;;
32705;SDS011;19094;50.972;3.538;2023-04-03T05:14:54;27.27;;;14.20;;
32705;SDS011;19094;50.972;3.538;2023-04-03T05:17:20;25.63;;;13.85;;
32705;SDS011;19094;50.972;3.538;2023-04-03T05:19:45;22.25;;;11.95;;
32705;SDS011;19094;50.972;3.538;2023-04-03T05:22:11;22.15;;;11.13;;
32705;SDS011;19094;50.972;3.538;2023-04-03T05:24:37;19.45;;;9.85;;
32705;SDS011;19094;50.972;3.538;2023-04-03T05:27:03;22.23;;;10.68;;
32705;SDS011;19094;50.972;3.538;2023-04-03T05:29:28;20.52;;;10.23;;
32705;SDS011;19094;50.972;3.538;2023-04-03T05:31:54;14.63;;;8.75;;
32705;SDS011;19094;50.972;3.538;2023-04-03T05:34:20;18.33;;;9.15;;
32705;SDS011;19094;50.972;3.538;2023-04-03T05:36:46;18.63;;;9.27;;
32705;SDS011;19094;50.972;3.538;2023-04-03T05:39:11;16.50;;;8.70;;
32705;SDS011;19094;50.972;3.538;2023-04-03T05:41:37;18.80;;;9.50;;
32705;SDS011;19094;50.972;3.538;2023-04-03T05:44:03;14.63;;;9.60;;
32705;SDS011;19094;50.972;3.538;2023-04-03T05:46:28;16.73;;;9.05;;
32705;SDS011;19094;50.972;3.538;2023-04-03T05:48:54;18.40;;;8.82;;
32705;SDS011;19094;50.972;3.538;2023-04-03T05:51:25;14.70;;;8.05;;
32705;SDS011;19094;50.972;3.538;2023-04-03T05:53:58;17.85;;;8.55;;
32705;SDS011;19094;50.972;3.538;2023-04-03T05:56:31;22.30;;;10.93;;
32705;SDS011;19094;50.972;3.538;2023-04-03T05:58:56;20.33;;;9.70;;
32705;SDS011;19094;50.972;3.538;2023-04-03T06:01:22;18.38;;;9.63;;
32705;SDS011;19094;50.972;3.538;2023-04-03T06:03:48;20.92;;;8.80;;
32705;SDS011;19094;50.972;3.538;2023-04-03T06:06:14;21.63;;;9.05;;
32705;SDS011;19094;50.972;3.538;2023-04-03T06:08:40;27.02;;;9.38;;
32705;SDS011;19094;50.972;3.538;2023-04-03T06:11:06;15.95;;;9.25;;
32705;SDS011;19094;50.972;3.538;2023-04-03T06:13:33;20.10;;;11.25;;
32705;SDS011;19094;50.972;3.538;2023-04-03T06:16:00;21.75;;;10.20;;
32705;SDS011;19094;50.972;3.538;2023-04-03T06:18:27;24.38;;;11.32;;
32705;SDS011;19094;50.972;3.538;2023-04-03T06:20:53;20.08;;;10.68;;
32705;SDS011;19094;50.972;3.538;2023-04-03T06:23:18;25.08;;;12.13;;
32705;SDS011;19094;50.972;3.538;2023-04-03T06:25:44;16.35;;;10.57;;
32705;SDS011;19094;50.972;3.538;2023-04-03T06:28:10;20.42;;;11.20;;
32705;SDS011;19094;50.972;3.538;2023-04-03T06:30:36;20.88;;;10.73;;
32705;SDS011;19094;50.972;3.538;2023-04-03T06:33:02;23.55;;;10.57;;
32705;SDS011;19094;50.972;3.538;2023-04-03T06:35:28;19.33;;;10.93;;
32705;SDS011;19094;50.972;3.538;2023-04-03T06:37:55;18.45;;;9.88;;
32705;SDS011;19094;50.972;3.538;2023-04-03T06:40:22;22.25;;;9.90;;
32705;SDS011;19094;50.972;3.538;2023-04-03T06:42:50;17.02;;;9.93;;
32705;SDS011;19094;50.972;3.538;2023-04-03T06:45:16;21.35;;;9.77;;
32705;SDS011;19094;50.972;3.538;2023-04-03T06:47:42;17.95;;;9.73;;
32705;SDS011;19094;50.972;3.538;2023-04-03T06:50:09;19.90;;;9.50;;
32705;SDS011;19094;50.972;3.538;2023-04-03T06:52:36;19.55;;;10.60;;
32705;SDS011;19094;50.972;3.538;2023-04-03T06:55:02;26.48;;;14.25;;
32705;SDS011;19094;50.972;3.538;2023-04-03T06:57:28;22.90;;;10.23;;
32705;SDS011;19094;50.972;3.538;2023-04-03T06:59:54;21.52;;;11.85;;
32705;SDS011;19094;50.972;3.538;2023-04-03T07:02:20;18.15;;;9.50;;
32705;SDS011;19094;50.972;3.538;2023-04-03T07:04:46;18.50;;;9.55;;
32705;SDS011;19094;50.972;3.538;2023-04-03T07:07:12;24.25;;;11.52;;
32705;SDS011;19094;50.972;3.538;2023-04-03T07:09:38;19.85;;;10.05;;
32705;SDS011;19094;50.972;3.538;2023-04-03T07:12:03;18.58;;;9.88;;
32705;SDS011;19094;50.972;3.538;2023-04-03T07:14:29;19.20;;;10.40;;
32705;SDS011;19094;50.972;3.538;2023-04-03T07:16:55;21.67;;;9.57;;
32705;SDS011;19094;50.972;3.538;2023-04-03T07:19:21;20.83;;;10.98;;
32705;SDS011;19094;50.972;3.538;2023-04-03T07:21:46;20.13;;;9.65;;
32705;SDS011;19094;50.972;3.538;2023-04-03T07:24:12;17.42;;;8.90;;
32705;SDS011;19094;50.972;3.538;2023-04-03T07:26:38;21.15;;;9.45;;
32705;SDS011;19094;50.972;3.538;2023-04-03T07:29:04;16.50;;;9.05;;
32705;SDS011;19094;50.972;3.538;2023-04-03T07:31:29;15.23;;;8.07;;
32705;SDS011;19094;50.972;3.538;2023-04-03T07:33:55;21.98;;;8.85;;
32705;SDS011;19094;50.972;3.538;2023-04-03T07:36:21;19.02;;;8.93;;
32705;SDS011;19094;50.972;3.538;2023-04-03T07:38:47;20.50;;;8.77;;
32705;SDS011;19094;50.972;3.538;2023-04-03T07:41:15;19.25;;;8.50;;
32705;SDS011;19094;50.972;3.538;2023-04-03T07:43:42;20.38;;;8.85;;
32705;SDS011;19094;50.972;3.538;2023-04-03T07:46:08;15.27;;;8.95;;
32705;SDS011;19094;50.972;3.538;2023-04-03T07:48:34;17.50;;;8.95;;
32705;SDS011;19094;50.972;3.538;2023-04-03T07:51:01;19.75;;;8.65;;
32705;SDS011;19094;50.972;3.538;2023-04-03T07:53:28;15.68;;;8.65;;
32705;SDS011;19094;50.972;3.538;2023-04-03T07:55:56;26.45;;;9.55;;
32705;SDS011;19094;50.972;3.538;2023-04-03T07:58:22;22.95;;;9.27;;
32705;SDS011;19094;50.972;3.538;2023-04-03T08:00:48;18.02;;;9.70;;
32705;SDS011;19094;50.972;3.538;2023-04-03T08:03:14;20.20;;;9.90;;
32705;SDS011;19094;50.972;3.538;2023-04-03T08:05:44;23.92;;;10.07;;
32705;SDS011;19094;50.972;3.538;2023-04-03T08:08:12;12.82;;;8.43;;
32705;SDS011;19094;50.972;3.538;2023-04-03T08:10:39;12.48;;;6.53;;
32705;SDS011;19094;50.972;3.538;2023-04-03T08:13:06;11.38;;;6.15;;
32705;SDS011;19094;50.972;3.538;2023-04-03T08:15:32;12.00;;;6.18;;
32705;SDS011;19094;50.972;3.538;2023-04-03T08:17:59;9.10;;;4.72;;
32705;SDS011;19094;50.972;3.538;2023-04-03T08:20:25;10.18;;;5.68;;
32705;SDS011;19094;50.972;3.538;2023-04-03T08:22:52;14.95;;;6.03;;
32705;SDS011;19094;50.972;3.538;2023-04-03T08:25:18;18.27;;;6.70;;
32705;SDS011;19094;50.972;3.538;2023-04-03T08:27:44;13.23;;;6.80;;
32705;SDS011;19094;50.972;3.538;2023-04-03T08:30:10;13.43;;;6.72;;
32705;SDS011;19094;50.972;3.538;2023-04-03T08:32:36;18.60;;;7.82;;
32705;SDS011;19094;50.972;3.538;2023-04-03T08:35:03;15.15;;;7.38;;
32705;SDS011;19094;50.972;3.538;2023-04-03T08:37:29;16.58;;;7.97;;
32705;SDS011;19094;50.972;3.538;2023-04-03T08:39:55;14.20;;;8.80;;
32705;SDS011;19094;50.972;3.538;2023-04-03T08:48:04;16.20;;;9.52;;
32705;SDS011;19094;50.972;3.538;2023-04-03T08:50:38;20.77;;;10.50;;
32705;SDS011;19094;50.972;3.538;2023-04-03T08:53:11;21.73;;;10.75;;
32705;SDS011;19094;50.972;3.538;2023-04-03T08:55:58;21.77;;;10.23;;
32705;SDS011;19094;50.972;3.538;2023-04-03T08:58:34;22.35;;;11.35;;
32705;SDS011;19094;50.972;3.538;2023-04-03T09:01:26;19.52;;;9.60;;
32705;SDS011;19094;50.972;3.538;2023-04-03T09:04:09;23.33;;;11.35;;
32705;SDS011;19094;50.972;3.538;2023-04-03T09:06:40;21.60;;;11.55;;
32705;SDS011;19094;50.972;3.538;2023-04-03T09:12:06;21.90;;;9.80;;
32705;SDS011;19094;50.972;3.538;2023-04-03T09:14:48;26.77;;;10.38;;
32705;SDS011;19094;50.972;3.538;2023-04-03T09:20:23;16.27;;;6.40;;
32705;SDS011;19094;50.972;3.538;2023-04-03T09:22:51;20.52;;;5.45;;
32705;SDS011;19094;50.972;3.538;2023-04-03T09:27:59;13.30;;;4.63;;
32705;SDS011;19094;50.972;3.538;2023-04-03T09:30:26;12.38;;;3.85;;
32705;SDS011;19094;50.972;3.538;2023-04-03T09:32:54;7.25;;;3.00;;
32705;SDS011;19094;50.972;3.538;2023-04-03T09:35:25;7.97;;;3.25;;
32705;SDS011;19094;50.972;3.538;2023-04-03T09:40:37;7.43;;;2.80;;
32705;SDS011;19094;50.972;3.538;2023-04-03T09:45:42;10.00;;;3.70;;
32705;SDS011;19094;50.972;3.538;2023-04-03T09:50:38;8.45;;;3.67;;
32705;SDS011;19094;50.972;3.538;2023-04-03T09:53:27;8.32;;;3.78;;
32705;SDS011;19094;50.972;3.538;2023-04-03T09:55:56;8.13;;;4.05;;
32705;SDS011;19094;50.972;3.538;2023-04-03T09:58:27;8.25;;;3.90;;
32705;SDS011;19094;50.972;3.538;2023-04-03T10:00:56;17.98;;;4.43;;
32705;SDS011;19094;50.972;3.538;2023-04-03T10:03:25;6.97;;;3.35;;
32705;SDS011;19094;50.972;3.538;2023-04-03T10:05:54;5.93;;;2.83;;
32705;SDS011;19094;50.972;3.538;2023-04-03T10:08:22;7.30;;;2.92;;
32705;SDS011;19094;50.972;3.538;2023-04-03T10:11:05;7.57;;;2.85;;
32705;SDS011;19094;50.972;3.538;2023-04-03T10:13:33;6.70;;;3.00;;
32705;SDS011;19094;50.972;3.538;2023-04-03T10:16:12;7.80;;;2.95;;
32705;SDS011;19094;50.972;3.538;2023-04-03T10:18:49;6.15;;;3.05;;
32705;SDS011;19094;50.972;3.538;2023-04-03T10:29:38;8.63;;;3.60;;
32705;SDS011;19094;50.972;3.538;2023-04-03T10:34:46;9.80;;;2.83;;
32705;SDS011;19094;50.972;3.538;2023-04-03T10:40:19;8.27;;;3.22;;
32705;SDS011;19094;50.972;3.538;2023-04-03T10:42:59;9.82;;;3.03;;
32705;SDS011;19094;50.972;3.538;2023-04-03T10:45:53;5.57;;;2.93;;
32705;SDS011;19094;50.972;3.538;2023-04-03T10:51:01;6.45;;;2.95;;
32705;SDS011;19094;50.972;3.538;2023-04-03T10:56:32;8.18;;;3.40;;
32705;SDS011;19094;50.972;3.538;2023-04-03T11:02:11;11.00;;;3.92;;
32705;SDS011;19094;50.972;3.538;2023-04-03T11:04:42;9.73;;;3.25;;
32705;SDS011;19094;50.972;3.538;2023-04-03T11:09:46;6.13;;;2.55;;
32705;SDS011;19094;50.972;3.538;2023-04-03T11:12:18;9.50;;;2.80;;
32705;SDS011;19094;50.972;3.538;2023-04-03T11:14:52;6.53;;;2.53;;
32705;SDS011;19094;50.972;3.538;2023-04-03T11:17:23;5.15;;;2.33;;
32705;SDS011;19094;50.972;3.538;2023-04-03T11:25:52;6.97;;;2.55;;
32705;SDS011;19094;50.972;3.538;2023-04-03T11:28:21;9.48;;;2.20;;
32705;SDS011;19094;50.972;3.538;2023-04-03T11:37:33;6.60;;;2.30;;
32705;SDS011;19094;50.972;3.538;2023-04-03T11:43:07;9.13;;;2.75;;
32705;SDS011;19094;50.972;3.538;2023-04-03T11:45:54;20.45;;;2.50;;
32705;SDS011;19094;50.972;3.538;2023-04-03T11:51:01;5.00;;;2.00;;
32705;SDS011;19094;50.972;3.538;2023-04-03T11:53:47;6.20;;;1.73;;
32705;SDS011;19094;50.972;3.538;2023-04-03T12:04:08;4.72;;;1.90;;
32705;SDS011;19094;50.972;3.538;2023-04-03T12:09:10;3.80;;;1.85;;
32705;SDS011;19094;50.972;3.538;2023-04-03T12:11:47;6.30;;;1.83;;
32705;SDS011;19094;50.972;3.538;2023-04-03T12:14:14;6.35;;;1.67;;
32705;SDS011;19094;50.972;3.538;2023-04-03T12:16:42;4.53;;;1.02;;
32705;SDS011;19094;50.972;3.538;2023-04-03T12:24:32;6.95;;;1.67;;
32705;SDS011;19094;50.972;3.538;2023-04-03T12:48:28;6.25;;;1.70;;
32705;SDS011;19094;50.972;3.538;2023-04-03T12:50:56;5.95;;;1.85;;
32705;SDS011;19094;50.972;3.538;2023-04-03T12:53:33;3.53;;;1.58;;
32705;SDS011;19094;50.972;3.538;2023-04-03T12:58:53;4.50;;;1.35;;
32705;SDS011;19094;50.972;3.538;2023-04-03T13:01:23;3.72;;;1.20;;
32705;SDS011;19094;50.972;3.538;2023-04-03T13:03:54;6.10;;;1.98;;
32705;SDS011;19094;50.972;3.538;2023-04-03T13:06:23;5.43;;;2.17;;
32705;SDS011;19094;50.972;3.538;2023-04-03T13:08:56;9.63;;;1.90;;
32705;SDS011;19094;50.972;3.538;2023-04-03T13:11:24;7.20;;;1.70;;
32705;SDS011;19094;50.972;3.538;2023-04-03T13:13:59;7.72;;;1.52;;
32705;SDS011;19094;50.972;3.538;2023-04-03T13:16:31;8.30;;;3.85;;
32705;SDS011;19094;50.972;3.538;2023-04-03T13:18:58;2.40;;;1.42;;
32705;SDS011;19094;50.972;3.538;2023-04-03T13:21:25;15.40;;;2.45;;
32705;SDS011;19094;50.972;3.538;2023-04-03T13:23:57;4.68;;;1.65;;
32705;SDS011;19094;50.972;3.538;2023-04-03T13:26:29;5.40;;;1.80;;
32705;SDS011;19094;50.972;3.538;2023-04-03T13:28:59;4.90;;;1.70;;
32705;SDS011;19094;50.972;3.538;2023-04-03T13:31:43;5.72;;;2.22;;
32705;SDS011;19094;50.972;3.538;2023-04-03T13:36:45;3.50;;;1.77;;
32705;SDS011;19094;50.972;3.538;2023-04-03T13:41:45;6.88;;;2.17;;
32705;SDS011;19094;50.972;3.538;2023-04-03T13:46:42;3.97;;;1.83;;
32705;SDS011;19094;50.972;3.538;2023-04-03T13:55:00;3.83;;;1.85;;
32705;SDS011;19094;50.972;3.538;2023-04-03T13:57:34;2.75;;;1.30;;
32705;SDS011;19094;50.972;3.538;2023-04-03T14:00:18;4.10;;;1.50;;
32705;SDS011;19094;50.972;3.538;2023-04-03T14:03:11;4.72;;;1.85;;
32705;SDS011;19094;50.972;3.538;2023-04-03T14:05:43;3.08;;;1.40;;
32705;SDS011;19094;50.972;3.538;2023-04-03T14:08:10;3.85;;;1.70;;
32705;SDS011;19094;50.972;3.538;2023-04-03T14:10:36;4.15;;;1.88;;
32705;SDS011;19094;50.972;3.538;2023-04-03T14:13:03;2.97;;;1.70;;
32705;SDS011;19094;50.972;3.538;2023-04-03T14:15:30;3.80;;;1.40;;
32705;SDS011;19094;50.972;3.538;2023-04-03T14:17:56;4.15;;;1.45;;
32705;SDS011;19094;50.972;3.538;2023-04-03T14:20:23;5.47;;;2.05;;
32705;SDS011;19094;50.972;3.538;2023-04-03T14:22:51;2.55;;;1.52;;
32705;SDS011;19094;50.972;3.538;2023-04-03T14:25:18;1.90;;;1.00;;
32705;SDS011;19094;50.972;3.538;2023-04-03T14:27:45;2.63;;;1.30;;
32705;SDS011;19094;50.972;3.538;2023-04-03T14:30:15;6.28;;;1.88;;
32705;SDS011;19094;50.972;3.538;2023-04-03T14:32:47;2.22;;;1.38;;
32705;SDS011;19094;50.972;3.538;2023-04-03T14:35:13;2.90;;;1.02;;
32705;SDS011;19094;50.972;3.538;2023-04-03T14:37:40;4.18;;;1.60;;
32705;SDS011;19094;50.972;3.538;2023-04-03T14:40:07;2.45;;;1.50;;
32705;SDS011;19094;50.972;3.538;2023-04-03T14:42:35;5.68;;;1.70;;
32705;SDS011;19094;50.972;3.538;2023-04-03T14:45:05;3.22;;;1.13;;
32705;SDS011;19094;50.972;3.538;2023-04-03T14:47:33;4.57;;;1.63;;
32705;SDS011;19094;50.972;3.538;2023-04-03T14:50:12;3.03;;;1.40;;
32705;SDS011;19094;50.972;3.538;2023-04-03T14:52:40;5.20;;;3.03;;
32705;SDS011;19094;50.972;3.538;2023-04-03T14:55:06;6.38;;;1.40;;
32705;SDS011;19094;50.972;3.538;2023-04-03T14:57:32;4.70;;;2.05;;
32705;SDS011;19094;50.972;3.538;2023-04-03T14:59:59;5.18;;;1.70;;
32705;SDS011;19094;50.972;3.538;2023-04-03T15:02:30;4.63;;;1.88;;
32705;SDS011;19094;50.972;3.538;2023-04-03T15:05:00;1.92;;;1.13;;
32705;SDS011;19094;50.972;3.538;2023-04-03T15:07:29;4.68;;;1.73;;
32705;SDS011;19094;50.972;3.538;2023-04-03T15:09:58;3.33;;;1.52;;
32705;SDS011;19094;50.972;3.538;2023-04-03T15:12:44;3.63;;;1.20;;
32705;SDS011;19094;50.972;3.538;2023-04-03T15:15:11;11.68;;;4.05;;
32705;SDS011;19094;50.972;3.538;2023-04-03T15:17:37;3.95;;;1.50;;
32705;SDS011;19094;50.972;3.538;2023-04-03T15:20:03;4.05;;;1.40;;
32705;SDS011;19094;50.972;3.538;2023-04-03T15:22:42;6.20;;;3.00;;
32705;SDS011;19094;50.972;3.538;2023-04-03T15:25:08;6.85;;;2.88;;
32705;SDS011;19094;50.972;3.538;2023-04-03T15:27:34;4.47;;;2.17;;
32705;SDS011;19094;50.972;3.538;2023-04-03T15:30:00;7.10;;;2.00;;
32705;SDS011;19094;50.972;3.538;2023-04-03T15:32:26;3.72;;;1.65;;
32705;SDS011;19094;50.972;3.538;2023-04-03T15:34:51;4.75;;;2.95;;
32705;SDS011;19094;50.972;3.538;2023-04-03T15:37:18;12.23;;;5.13;;
32705;SDS011;19094;50.972;3.538;2023-04-03T15:39:44;5.18;;;1.83;;
32705;SDS011;19094;50.972;3.538;2023-04-03T15:42:10;11.07;;;2.78;;
32705;SDS011;19094;50.972;3.538;2023-04-03T15:44:37;8.77;;;2.25;;
32705;SDS011;19094;50.972;3.538;2023-04-03T15:47:03;7.47;;;2.10;;
32705;SDS011;19094;50.972;3.538;2023-04-03T15:49:30;3.65;;;1.35;;
32705;SDS011;19094;50.972;3.538;2023-04-03T15:51:57;5.65;;;1.80;;
32705;SDS011;19094;50.972;3.538;2023-04-03T15:54:23;4.18;;;1.60;;
32705;SDS011;19094;50.972;3.538;2023-04-03T15:56:50;2.88;;;1.70;;
32705;SDS011;19094;50.972;3.538;2023-04-03T15:59:16;2.85;;;1.77;;
32705;SDS011;19094;50.972;3.538;2023-04-03T16:01:41;4.63;;;1.90;;
32705;SDS011;19094;50.972;3.538;2023-04-03T16:04:08;5.25;;;1.85;;
32705;SDS011;19094;50.972;3.538;2023-04-03T16:06:35;2.28;;;1.20;;
32705;SDS011;19094;50.972;3.538;2023-04-03T16:09:01;4.50;;;1.60;;
32705;SDS011;19094;50.972;3.538;2023-04-03T16:11:27;4.03;;;1.60;;
32705;SDS011;19094;50.972;3.538;2023-04-03T16:13:53;5.75;;;1.77;;
32705;SDS011;19094;50.972;3.538;2023-04-03T16:16:19;2.45;;;1.25;;
32705;SDS011;19094;50.972;3.538;2023-04-03T16:18:45;4.95;;;1.60;;
32705;SDS011;19094;50.972;3.538;2023-04-03T16:21:12;4.60;;;1.25;;
32705;SDS011;19094;50.972;3.538;2023-04-03T16:23:38;2.17;;;1.23;;
32705;SDS011;19094;50.972;3.538;2023-04-03T16:26:05;3.45;;;1.40;;
32705;SDS011;19094;50.972;3.538;2023-04-03T16:28:30;2.08;;;1.30;;
32705;SDS011;19094;50.972;3.538;2023-04-03T16:30:56;5.68;;;1.40;;
32705;SDS011;19094;50.972;3.538;2023-04-03T16:33:22;3.13;;;1.50;;
32705;SDS011;19094;50.972;3.538;2023-04-03T16:35:49;5.43;;;1.58;;
32705;SDS011;19094;50.972;3.538;2023-04-03T16:38:15;3.70;;;1.70;;
32705;SDS011;19094;50.972;3.538;2023-04-03T16:40:41;4.45;;;1.70;;
32705;SDS011;19094;50.972;3.538;2023-04-03T16:43:07;5.15;;;1.67;;
32705;SDS011;19094;50.972;3.538;2023-04-03T16:45:32;3.20;;;1.40;;